sensor_id;sensor_type;location;lat;lon;timestamp;P1;durP1;ratioP1;P2;durP2;ratioP2
2966;SDS011;1493;51.496;7.210;2024-02-21T00:00:26;18.03;;;7.50;;
2966;SDS011;1493;51.496;7.210;2024-02-21T00:02:53;21.63;;;10.20;;
2966;SDS011;1493;51.496;7.210;2024-02-21T00:05:20;18.83;;;9.77;;
2966;SDS011;1493;51.496;7.210;2024-02-21T00:07:47;26.73;;;9.43;;
2966;SDS011;1493;51.496;7.210;2024-02-21T00:10:15;19.30;;;9.73;;
2966;SDS011;1493;51.496;7.210;2024-02-21T00:12:42;21.00;;;9.20;;
2966;SDS011;1493;51.496;7.210;2024-02-21T00:15:09;21.20;;;9.27;;
2966;SDS011;1493;51.496;7.210;2024-02-21T00:17:36;19.00;;;11.03;;
2966;SDS011;1493;51.496;7.210;2024-02-21T00:20:03;16.60;;;10.20;;
2966;SDS011;1493;51.496;7.210;2024-02-21T00:22:30;21.67;;;10.30;;
2966;SDS011;1493;51.496;7.210;2024-02-21T00:24:58;16.00;;;9.37;;
2966;SDS011;1493;51.496;7.210;2024-02-21T00:27:26;18.43;;;9.93;;
2966;SDS011;1493;51.496;7.210;2024-02-21T00:29:53;18.30;;;9.47;;
2966;SDS011;1493;51.496;7.210;2024-02-21T00:32:20;20.63;;;9.90;;
2966;SDS011;1493;51.496;7.210;2024-02-21T00:34:47;17.63;;;8.40;;
2966;SDS011;1493;51.496;7.210;2024-02-21T00:37:14;19.90;;;9.67;;
2966;SDS011;1493;51.496;7.210;2024-02-21T00:39:41;19.33;;;9.77;;
2966;SDS011;1493;51.496;7.210;2024-02-21T00:42:08;18.13;;;9.60;;
2966;SDS011;1493;51.496;7.210;2024-02-21T00:44:36;17.40;;;8.43;;
2966;SDS011;1493;51.496;7.210;2024-02-21T00:47:03;23.53;;;8.67;;
2966;SDS011;1493;51.496;7.210;2024-02-21T00:49:30;23.03;;;10.73;;
2966;SDS011;1493;51.496;7.210;2024-02-21T00:51:57;18.17;;;9.90;;
2966;SDS011;1493;51.496;7.210;2024-02-21T00:54:23;20.03;;;10.20;;
2966;SDS011;1493;51.496;7.210;2024-02-21T00:56:50;21.70;;;9.37;;
2966;SDS011;1493;51.496;7.210;2024-02-21T00:59:18;18.03;;;9.00;;
2966;SDS011;1493;51.496;7.210;2024-02-21T01:01:46;27.90;;;11.30;;
2966;SDS011;1493;51.496;7.210;2024-02-21T01:04:13;16.90;;;10.40;;
2966;SDS011;1493;51.496;7.210;2024-02-21T01:06:39;22.80;;;9.80;;
2966;SDS011;1493;51.496;7.210;2024-02-21T01:09:09;24.93;;;9.70;;
2966;SDS011;1493;51.496;7.210;2024-02-21T01:11:36;19.00;;;9.63;;
2966;SDS011;1493;51.496;7.210;2024-02-21T01:14:02;23.83;;;10.97;;
2966;SDS011;1493;51.496;7.210;2024-02-21T01:16:29;19.57;;;9.90;;
2966;SDS011;1493;51.496;7.210;2024-02-21T01:18:57;19.43;;;9.63;;
2966;SDS011;1493;51.496;7.210;2024-02-21T01:21:24;20.60;;;10.63;;
2966;SDS011;1493;51.496;7.210;2024-02-21T01:23:51;20.27;;;10.17;;
2966;SDS011;1493;51.496;7.210;2024-02-21T01:26:18;19.73;;;9.40;;
2966;SDS011;1493;51.496;7.210;2024-02-21T01:28:45;23.40;;;9.90;;
2966;SDS011;1493;51.496;7.210;2024-02-21T01:31:11;25.37;;;11.00;;
2966;SDS011;1493;51.496;7.210;2024-02-21T01:33:40;18.33;;;9.87;;
2966;SDS011;1493;51.496;7.210;2024-02-21T01:36:09;20.37;;;10.27;;
2966;SDS011;1493;51.496;7.210;2024-02-21T01:38:35;24.23;;;10.20;;
2966;SDS011;1493;51.496;7.210;2024-02-21T01:41:02;20.07;;;10.57;;
2966;SDS011;1493;51.496;7.210;2024-02-21T01:43:29;23.50;;;10.83;;
2966;SDS011;1493;51.496;7.210;2024-02-21T01:45:56;19.77;;;8.90;;
2966;SDS011;1493;51.496;7.210;2024-02-21T01:48:24;21.70;;;9.57;;
2966;SDS011;1493;51.496;7.210;2024-02-21T01:50:51;15.23;;;9.57;;
2966;SDS011;1493;51.496;7.210;2024-02-21T01:53:22;16.20;;;9.80;;
2966;SDS011;1493;51.496;7.210;2024-02-21T01:55:51;17.80;;;9.00;;
2966;SDS011;1493;51.496;7.210;2024-02-21T01:58:18;19.57;;;8.70;;
2966;SDS011;1493;51.496;7.210;2024-02-21T02:00:46;16.27;;;8.50;;
2966;SDS011;1493;51.496;7.210;2024-02-21T02:03:14;20.23;;;10.00;;
2966;SDS011;1493;51.496;7.210;2024-02-21T02:05:42;20.10;;;10.30;;
2966;SDS011;1493;51.496;7.210;2024-02-21T02:08:10;20.67;;;8.80;;
2966;SDS011;1493;51.496;7.210;2024-02-21T02:10:40;20.53;;;9.40;;
2966;SDS011;1493;51.496;7.210;2024-02-21T02:13:07;19.70;;;9.47;;
2966;SDS011;1493;51.496;7.210;2024-02-21T02:15:37;24.50;;;9.27;;
2966;SDS011;1493;51.496;7.210;2024-02-21T02:18:05;17.27;;;8.97;;
2966;SDS011;1493;51.496;7.210;2024-02-21T02:20:31;18.13;;;8.53;;
2966;SDS011;1493;51.496;7.210;2024-02-21T02:22:58;25.23;;;8.90;;
2966;SDS011;1493;51.496;7.210;2024-02-21T02:25:27;16.43;;;8.10;;
2966;SDS011;1493;51.496;7.210;2024-02-21T02:27:54;21.00;;;9.37;;
2966;SDS011;1493;51.496;7.210;2024-02-21T02:30:21;18.33;;;9.37;;
2966;SDS011;1493;51.496;7.210;2024-02-21T02:32:48;19.27;;;9.20;;
2966;SDS011;1493;51.496;7.210;2024-02-21T02:35:14;14.70;;;8.53;;
2966;SDS011;1493;51.496;7.210;2024-02-21T02:37:47;15.77;;;10.07;;
2966;SDS011;1493;51.496;7.210;2024-02-21T02:40:14;14.20;;;8.03;;
2966;SDS011;1493;51.496;7.210;2024-02-21T02:42:42;18.43;;;9.20;;
2966;SDS011;1493;51.496;7.210;2024-02-21T02:45:09;16.20;;;10.20;;
2966;SDS011;1493;51.496;7.210;2024-02-21T02:47:36;17.67;;;10.13;;
2966;SDS011;1493;51.496;7.210;2024-02-21T02:50:06;21.73;;;9.73;;
2966;SDS011;1493;51.496;7.210;2024-02-21T02:52:33;23.60;;;9.50;;
2966;SDS011;1493;51.496;7.210;2024-02-21T02:55:00;19.27;;;9.17;;
2966;SDS011;1493;51.496;7.210;2024-02-21T02:57:27;19.77;;;9.50;;
2966;SDS011;1493;51.496;7.210;2024-02-21T02:59:55;23.37;;;9.80;;
2966;SDS011;1493;51.496;7.210;2024-02-21T03:02:22;18.07;;;8.87;;
2966;SDS011;1493;51.496;7.210;2024-02-21T03:04:49;21.40;;;9.20;;
2966;SDS011;1493;51.496;7.210;2024-02-21T03:07:16;13.97;;;8.30;;
2966;SDS011;1493;51.496;7.210;2024-02-21T03:09:43;24.40;;;9.37;;
2966;SDS011;1493;51.496;7.210;2024-02-21T03:12:10;14.27;;;8.70;;
2966;SDS011;1493;51.496;7.210;2024-02-21T03:14:37;22.73;;;9.37;;
2966;SDS011;1493;51.496;7.210;2024-02-21T03:17:05;18.50;;;8.97;;
2966;SDS011;1493;51.496;7.210;2024-02-21T03:19:32;23.10;;;8.90;;
2966;SDS011;1493;51.496;7.210;2024-02-21T03:21:59;15.73;;;8.10;;
2966;SDS011;1493;51.496;7.210;2024-02-21T03:24:25;19.70;;;8.07;;
2966;SDS011;1493;51.496;7.210;2024-02-21T03:26:54;17.50;;;8.03;;
2966;SDS011;1493;51.496;7.210;2024-02-21T03:29:20;18.20;;;8.60;;
2966;SDS011;1493;51.496;7.210;2024-02-21T03:31:47;15.47;;;8.20;;
2966;SDS011;1493;51.496;7.210;2024-02-21T03:34:16;18.53;;;8.43;;
2966;SDS011;1493;51.496;7.210;2024-02-21T03:36:42;13.87;;;8.70;;
2966;SDS011;1493;51.496;7.210;2024-02-21T03:39:09;14.27;;;8.00;;
2966;SDS011;1493;51.496;7.210;2024-02-21T03:41:36;16.63;;;8.17;;
2966;SDS011;1493;51.496;7.210;2024-02-21T03:44:03;20.63;;;9.73;;
2966;SDS011;1493;51.496;7.210;2024-02-21T03:46:30;16.60;;;9.23;;
2966;SDS011;1493;51.496;7.210;2024-02-21T03:48:57;20.07;;;9.23;;
2966;SDS011;1493;51.496;7.210;2024-02-21T03:51:26;14.80;;;7.80;;
2966;SDS011;1493;51.496;7.210;2024-02-21T03:53:52;19.97;;;7.90;;
2966;SDS011;1493;51.496;7.210;2024-02-21T03:56:19;15.80;;;8.27;;
2966;SDS011;1493;51.496;7.210;2024-02-21T03:58:46;18.47;;;9.43;;
2966;SDS011;1493;51.496;7.210;2024-02-21T04:01:15;19.67;;;9.57;;
2966;SDS011;1493;51.496;7.210;2024-02-21T04:03:43;14.53;;;7.13;;
2966;SDS011;1493;51.496;7.210;2024-02-21T04:06:10;17.67;;;8.03;;
2966;SDS011;1493;51.496;7.210;2024-02-21T04:08:37;18.20;;;8.07;;
2966;SDS011;1493;51.496;7.210;2024-02-21T04:11:05;18.27;;;7.90;;
2966;SDS011;1493;51.496;7.210;2024-02-21T04:13:31;15.97;;;8.90;;
2966;SDS011;1493;51.496;7.210;2024-02-21T04:15:58;15.67;;;9.47;;
2966;SDS011;1493;51.496;7.210;2024-02-21T04:18:26;14.63;;;8.57;;
2966;SDS011;1493;51.496;7.210;2024-02-21T04:20:53;22.20;;;8.27;;
2966;SDS011;1493;51.496;7.210;2024-02-21T04:23:19;18.20;;;8.70;;
2966;SDS011;1493;51.496;7.210;2024-02-21T04:25:47;15.33;;;7.67;;
2966;SDS011;1493;51.496;7.210;2024-02-21T04:28:14;16.10;;;9.03;;
2966;SDS011;1493;51.496;7.210;2024-02-21T04:30:41;15.33;;;9.60;;
2966;SDS011;1493;51.496;7.210;2024-02-21T04:33:08;17.00;;;7.90;;
2966;SDS011;1493;51.496;7.210;2024-02-21T04:35:35;13.30;;;8.53;;
2966;SDS011;1493;51.496;7.210;2024-02-21T04:38:03;23.83;;;8.63;;
2966;SDS011;1493;51.496;7.210;2024-02-21T04:40:30;16.43;;;7.67;;
2966;SDS011;1493;51.496;7.210;2024-02-21T04:42:58;16.60;;;8.10;;
2966;SDS011;1493;51.496;7.210;2024-02-21T04:45:25;13.90;;;8.30;;
2966;SDS011;1493;51.496;7.210;2024-02-21T04:47:52;14.50;;;8.00;;
2966;SDS011;1493;51.496;7.210;2024-02-21T04:50:19;14.83;;;7.60;;
2966;SDS011;1493;51.496;7.210;2024-02-21T04:52:45;14.10;;;7.73;;
2966;SDS011;1493;51.496;7.210;2024-02-21T04:55:12;15.00;;;6.20;;
2966;SDS011;1493;51.496;7.210;2024-02-21T04:57:39;11.57;;;7.10;;
2966;SDS011;1493;51.496;7.210;2024-02-21T05:00:08;16.63;;;7.73;;
2966;SDS011;1493;51.496;7.210;2024-02-21T05:02:36;12.80;;;6.33;;
2966;SDS011;1493;51.496;7.210;2024-02-21T05:05:03;13.43;;;7.70;;
2966;SDS011;1493;51.496;7.210;2024-02-21T05:07:30;14.40;;;6.90;;
2966;SDS011;1493;51.496;7.210;2024-02-21T05:09:57;14.20;;;7.00;;
2966;SDS011;1493;51.496;7.210;2024-02-21T05:12:24;13.47;;;6.20;;
2966;SDS011;1493;51.496;7.210;2024-02-21T05:14:50;14.83;;;7.30;;
2966;SDS011;1493;51.496;7.210;2024-02-21T05:17:19;18.20;;;7.30;;
2966;SDS011;1493;51.496;7.210;2024-02-21T05:19:45;13.40;;;6.30;;
2966;SDS011;1493;51.496;7.210;2024-02-21T05:22:12;10.93;;;6.00;;
2966;SDS011;1493;51.496;7.210;2024-02-21T05:24:39;14.87;;;7.00;;
2966;SDS011;1493;51.496;7.210;2024-02-21T05:27:06;8.50;;;5.60;;
2966;SDS011;1493;51.496;7.210;2024-02-21T05:29:33;16.20;;;6.47;;
2966;SDS011;1493;51.496;7.210;2024-02-21T05:32:00;12.60;;;6.20;;
2966;SDS011;1493;51.496;7.210;2024-02-21T05:34:28;11.23;;;6.40;;
2966;SDS011;1493;51.496;7.210;2024-02-21T05:36:55;7.70;;;5.60;;
2966;SDS011;1493;51.496;7.210;2024-02-21T05:39:24;11.90;;;6.20;;
2966;SDS011;1493;51.496;7.210;2024-02-21T05:41:51;10.73;;;5.97;;
2966;SDS011;1493;51.496;7.210;2024-02-21T05:44:18;12.87;;;5.80;;
2966;SDS011;1493;51.496;7.210;2024-02-21T05:46:47;16.33;;;6.30;;
2966;SDS011;1493;51.496;7.210;2024-02-21T05:49:13;11.90;;;6.20;;
2966;SDS011;1493;51.496;7.210;2024-02-21T05:51:42;14.07;;;6.33;;
2966;SDS011;1493;51.496;7.210;2024-02-21T05:54:08;9.60;;;5.70;;
2966;SDS011;1493;51.496;7.210;2024-02-21T05:56:35;11.77;;;5.53;;
2966;SDS011;1493;51.496;7.210;2024-02-21T05:59:02;8.97;;;5.33;;
2966;SDS011;1493;51.496;7.210;2024-02-21T06:01:29;12.27;;;5.63;;
2966;SDS011;1493;51.496;7.210;2024-02-21T06:03:56;13.33;;;5.93;;
2966;SDS011;1493;51.496;7.210;2024-02-21T06:06:23;9.60;;;5.00;;
2966;SDS011;1493;51.496;7.210;2024-02-21T06:08:51;11.30;;;5.33;;
2966;SDS011;1493;51.496;7.210;2024-02-21T06:11:18;11.13;;;5.77;;
2966;SDS011;1493;51.496;7.210;2024-02-21T06:13:44;15.67;;;8.67;;
2966;SDS011;1493;51.496;7.210;2024-02-21T06:16:11;10.10;;;7.00;;
2966;SDS011;1493;51.496;7.210;2024-02-21T06:18:38;10.60;;;5.10;;
2966;SDS011;1493;51.496;7.210;2024-02-21T06:21:05;9.67;;;6.30;;
2966;SDS011;1493;51.496;7.210;2024-02-21T06:23:32;11.97;;;4.77;;
2966;SDS011;1493;51.496;7.210;2024-02-21T06:26:00;12.60;;;4.63;;
2966;SDS011;1493;51.496;7.210;2024-02-21T06:28:27;8.10;;;4.70;;
2966;SDS011;1493;51.496;7.210;2024-02-21T06:30:54;10.20;;;5.30;;
2966;SDS011;1493;51.496;7.210;2024-02-21T06:33:20;8.70;;;4.47;;
2966;SDS011;1493;51.496;7.210;2024-02-21T06:35:49;12.47;;;6.70;;
2966;SDS011;1493;51.496;7.210;2024-02-21T06:38:18;7.47;;;4.67;;
2966;SDS011;1493;51.496;7.210;2024-02-21T06:40:44;10.00;;;4.23;;
2966;SDS011;1493;51.496;7.210;2024-02-21T06:43:16;10.77;;;5.00;;
2966;SDS011;1493;51.496;7.210;2024-02-21T06:45:44;7.70;;;4.07;;
2966;SDS011;1493;51.496;7.210;2024-02-21T06:48:12;10.83;;;5.03;;
2966;SDS011;1493;51.496;7.210;2024-02-21T06:50:39;6.07;;;4.43;;
2966;SDS011;1493;51.496;7.210;2024-02-21T06:53:06;8.80;;;4.30;;
2966;SDS011;1493;51.496;7.210;2024-02-21T06:55:33;7.53;;;4.63;;
2966;SDS011;1493;51.496;7.210;2024-02-21T06:58:00;10.00;;;4.37;;
2966;SDS011;1493;51.496;7.210;2024-02-21T07:00:28;7.73;;;4.40;;
2966;SDS011;1493;51.496;7.210;2024-02-21T07:02:55;9.67;;;5.07;;
2966;SDS011;1493;51.496;7.210;2024-02-21T07:05:23;7.27;;;4.93;;
2966;SDS011;1493;51.496;7.210;2024-02-21T07:07:50;7.50;;;4.10;;
2966;SDS011;1493;51.496;7.210;2024-02-21T07:10:16;9.30;;;4.77;;
2966;SDS011;1493;51.496;7.210;2024-02-21T07:12:43;8.80;;;5.70;;
2966;SDS011;1493;51.496;7.210;2024-02-21T07:15:10;8.70;;;4.33;;
2966;SDS011;1493;51.496;7.210;2024-02-21T07:17:38;8.43;;;4.40;;
2966;SDS011;1493;51.496;7.210;2024-02-21T07:20:06;9.77;;;3.57;;
2966;SDS011;1493;51.496;7.210;2024-02-21T07:22:33;9.10;;;5.20;;
2966;SDS011;1493;51.496;7.210;2024-02-21T07:25:00;10.00;;;4.70;;
2966;SDS011;1493;51.496;7.210;2024-02-21T07:27:27;9.77;;;4.00;;
2966;SDS011;1493;51.496;7.210;2024-02-21T07:29:56;12.43;;;5.23;;
2966;SDS011;1493;51.496;7.210;2024-02-21T07:32:23;12.43;;;4.90;;
2966;SDS011;1493;51.496;7.210;2024-02-21T07:34:51;10.03;;;4.33;;
2966;SDS011;1493;51.496;7.210;2024-02-21T07:37:18;9.27;;;4.67;;
2966;SDS011;1493;51.496;7.210;2024-02-21T07:39:45;14.37;;;4.70;;
2966;SDS011;1493;51.496;7.210;2024-02-21T07:42:12;6.90;;;4.47;;
2966;SDS011;1493;51.496;7.210;2024-02-21T07:44:39;6.40;;;4.10;;
2966;SDS011;1493;51.496;7.210;2024-02-21T07:47:06;7.40;;;4.70;;
2966;SDS011;1493;51.496;7.210;2024-02-21T07:49:33;12.50;;;4.30;;
2966;SDS011;1493;51.496;7.210;2024-02-21T07:52:08;14.93;;;5.27;;
2966;SDS011;1493;51.496;7.210;2024-02-21T07:54:35;9.90;;;4.63;;
2966;SDS011;1493;51.496;7.210;2024-02-21T07:57:01;11.00;;;5.80;;
2966;SDS011;1493;51.496;7.210;2024-02-21T07:59:29;8.87;;;4.50;;
2966;SDS011;1493;51.496;7.210;2024-02-21T08:01:56;11.20;;;5.13;;
2966;SDS011;1493;51.496;7.210;2024-02-21T08:04:23;9.53;;;4.67;;
2966;SDS011;1493;51.496;7.210;2024-02-21T08:06:51;10.57;;;5.47;;
2966;SDS011;1493;51.496;7.210;2024-02-21T08:09:22;11.00;;;4.60;;
2966;SDS011;1493;51.496;7.210;2024-02-21T08:11:49;9.73;;;4.50;;
2966;SDS011;1493;51.496;7.210;2024-02-21T08:14:15;7.70;;;4.40;;
2966;SDS011;1493;51.496;7.210;2024-02-21T08:16:43;6.37;;;4.23;;
2966;SDS011;1493;51.496;7.210;2024-02-21T08:19:10;5.70;;;3.70;;
2966;SDS011;1493;51.496;7.210;2024-02-21T08:21:37;38.43;;;17.30;;
2966;SDS011;1493;51.496;7.210;2024-02-21T08:24:04;9.60;;;3.87;;
2966;SDS011;1493;51.496;7.210;2024-02-21T08:26:34;7.40;;;4.40;;
2966;SDS011;1493;51.496;7.210;2024-02-21T08:29:01;7.27;;;4.43;;
2966;SDS011;1493;51.496;7.210;2024-02-21T08:31:28;7.90;;;4.13;;
2966;SDS011;1493;51.496;7.210;2024-02-21T08:33:56;8.33;;;3.90;;
2966;SDS011;1493;51.496;7.210;2024-02-21T08:36:27;8.23;;;3.97;;
2966;SDS011;1493;51.496;7.210;2024-02-21T08:38:54;8.10;;;4.10;;
2966;SDS011;1493;51.496;7.210;2024-02-21T08:41:21;4.53;;;3.10;;
2966;SDS011;1493;51.496;7.210;2024-02-21T08:43:50;5.20;;;3.80;;
2966;SDS011;1493;51.496;7.210;2024-02-21T08:46:17;8.70;;;4.07;;
2966;SDS011;1493;51.496;7.210;2024-02-21T08:48:44;7.57;;;3.60;;
2966;SDS011;1493;51.496;7.210;2024-02-21T08:51:12;9.00;;;3.83;;
2966;SDS011;1493;51.496;7.210;2024-02-21T08:53:38;5.93;;;3.60;;
2966;SDS011;1493;51.496;7.210;2024-02-21T08:56:06;6.93;;;3.83;;
2966;SDS011;1493;51.496;7.210;2024-02-21T08:58:33;9.93;;;3.93;;
2966;SDS011;1493;51.496;7.210;2024-02-21T09:01:02;9.73;;;3.63;;
2966;SDS011;1493;51.496;7.210;2024-02-21T09:03:30;7.07;;;3.60;;
2966;SDS011;1493;51.496;7.210;2024-02-21T09:05:58;10.60;;;4.03;;
2966;SDS011;1493;51.496;7.210;2024-02-21T09:08:24;6.43;;;3.57;;
2966;SDS011;1493;51.496;7.210;2024-02-21T09:10:51;6.90;;;3.23;;
2966;SDS011;1493;51.496;7.210;2024-02-21T09:13:18;8.40;;;4.30;;
2966;SDS011;1493;51.496;7.210;2024-02-21T09:15:45;6.47;;;3.17;;
2966;SDS011;1493;51.496;7.210;2024-02-21T09:18:14;10.80;;;3.50;;
2966;SDS011;1493;51.496;7.210;2024-02-21T09:20:41;9.93;;;4.23;;
2966;SDS011;1493;51.496;7.210;2024-02-21T09:23:08;10.13;;;4.50;;
2966;SDS011;1493;51.496;7.210;2024-02-21T09:25:35;10.07;;;4.80;;
2966;SDS011;1493;51.496;7.210;2024-02-21T09:28:02;10.73;;;4.00;;
2966;SDS011;1493;51.496;7.210;2024-02-21T09:30:31;6.33;;;3.70;;
2966;SDS011;1493;51.496;7.210;2024-02-21T09:32:58;11.53;;;4.90;;
2966;SDS011;1493;51.496;7.210;2024-02-21T09:35:27;12.00;;;5.33;;
2966;SDS011;1493;51.496;7.210;2024-02-21T09:37:54;12.27;;;4.70;;
2966;SDS011;1493;51.496;7.210;2024-02-21T09:40:21;9.60;;;5.00;;
2966;SDS011;1493;51.496;7.210;2024-02-21T09:42:49;11.23;;;5.13;;
2966;SDS011;1493;51.496;7.210;2024-02-21T09:45:24;11.90;;;4.50;;
2966;SDS011;1493;51.496;7.210;2024-02-21T09:47:56;8.53;;;4.23;;
2966;SDS011;1493;51.496;7.210;2024-02-21T09:50:43;14.37;;;4.43;;
2966;SDS011;1493;51.496;7.210;2024-02-21T09:53:11;12.63;;;5.93;;
2966;SDS011;1493;51.496;7.210;2024-02-21T09:55:39;13.50;;;5.73;;
2966;SDS011;1493;51.496;7.210;2024-02-21T09:58:07;10.97;;;5.27;;
2966;SDS011;1493;51.496;7.210;2024-02-21T10:00:35;11.20;;;5.40;;
2966;SDS011;1493;51.496;7.210;2024-02-21T10:03:02;11.13;;;5.60;;
2966;SDS011;1493;51.496;7.210;2024-02-21T10:05:32;17.30;;;5.93;;
2966;SDS011;1493;51.496;7.210;2024-02-21T10:08:02;10.50;;;4.67;;
2966;SDS011;1493;51.496;7.210;2024-02-21T10:10:29;10.87;;;4.50;;
2966;SDS011;1493;51.496;7.210;2024-02-21T10:12:56;11.10;;;5.17;;
2966;SDS011;1493;51.496;7.210;2024-02-21T10:15:24;14.73;;;5.27;;
2966;SDS011;1493;51.496;7.210;2024-02-21T10:17:58;18.50;;;10.00;;
2966;SDS011;1493;51.496;7.210;2024-02-21T10:20:25;12.00;;;5.60;;
2966;SDS011;1493;51.496;7.210;2024-02-21T10:23:00;9.80;;;5.13;;
2966;SDS011;1493;51.496;7.210;2024-02-21T10:25:32;10.80;;;5.87;;
2966;SDS011;1493;51.496;7.210;2024-02-21T10:28:00;12.63;;;5.30;;
2966;SDS011;1493;51.496;7.210;2024-02-21T10:30:27;13.33;;;5.90;;
2966;SDS011;1493;51.496;7.210;2024-02-21T10:32:54;13.53;;;6.80;;
2966;SDS011;1493;51.496;7.210;2024-02-21T10:35:26;12.30;;;6.00;;
2966;SDS011;1493;51.496;7.210;2024-02-21T10:37:53;9.80;;;6.50;;
2966;SDS011;1493;51.496;7.210;2024-02-21T10:40:23;12.13;;;5.40;;
2966;SDS011;1493;51.496;7.210;2024-02-21T10:42:51;15.47;;;5.47;;
2966;SDS011;1493;51.496;7.210;2024-02-21T10:45:22;10.53;;;4.03;;
2966;SDS011;1493;51.496;7.210;2024-02-21T10:47:55;8.47;;;4.10;;
2966;SDS011;1493;51.496;7.210;2024-02-21T10:50:27;5.90;;;3.67;;
2966;SDS011;1493;51.496;7.210;2024-02-21T10:53:00;7.83;;;4.23;;
2966;SDS011;1493;51.496;7.210;2024-02-21T10:55:37;10.37;;;4.00;;
2966;SDS011;1493;51.496;7.210;2024-02-21T10:58:08;4.70;;;3.20;;
2966;SDS011;1493;51.496;7.210;2024-02-21T11:00:36;7.50;;;4.07;;
2966;SDS011;1493;51.496;7.210;2024-02-21T11:03:04;9.70;;;3.77;;
2966;SDS011;1493;51.496;7.210;2024-02-21T11:05:31;11.37;;;6.10;;
2966;SDS011;1493;51.496;7.210;2024-02-21T11:07:59;5.53;;;3.50;;
2966;SDS011;1493;51.496;7.210;2024-02-21T11:10:26;4.70;;;3.27;;
2966;SDS011;1493;51.496;7.210;2024-02-21T11:13:04;7.13;;;4.17;;
2966;SDS011;1493;51.496;7.210;2024-02-21T11:15:33;5.03;;;3.70;;
2966;SDS011;1493;51.496;7.210;2024-02-21T11:18:00;10.80;;;3.67;;
2966;SDS011;1493;51.496;7.210;2024-02-21T11:20:33;6.50;;;3.63;;
2966;SDS011;1493;51.496;7.210;2024-02-21T11:23:00;8.37;;;3.80;;
2966;SDS011;1493;51.496;7.210;2024-02-21T11:25:27;10.83;;;4.60;;
2966;SDS011;1493;51.496;7.210;2024-02-21T11:28:01;7.70;;;3.83;;
2966;SDS011;1493;51.496;7.210;2024-02-21T11:30:29;6.83;;;3.97;;
2966;SDS011;1493;51.496;7.210;2024-02-21T11:33:01;6.10;;;3.60;;
2966;SDS011;1493;51.496;7.210;2024-02-21T11:35:33;5.50;;;3.50;;
2966;SDS011;1493;51.496;7.210;2024-02-21T11:38:09;9.73;;;4.87;;
2966;SDS011;1493;51.496;7.210;2024-02-21T11:40:40;5.40;;;3.97;;
2966;SDS011;1493;51.496;7.210;2024-02-21T11:43:08;6.60;;;3.73;;
2966;SDS011;1493;51.496;7.210;2024-02-21T11:45:35;6.23;;;3.80;;
2966;SDS011;1493;51.496;7.210;2024-02-21T11:48:03;11.43;;;4.27;;
2966;SDS011;1493;51.496;7.210;2024-02-21T11:50:34;5.00;;;3.90;;
2966;SDS011;1493;51.496;7.210;2024-02-21T11:53:01;9.53;;;3.30;;
2966;SDS011;1493;51.496;7.210;2024-02-21T11:55:28;4.77;;;2.87;;
2966;SDS011;1493;51.496;7.210;2024-02-21T11:57:55;10.07;;;3.70;;
2966;SDS011;1493;51.496;7.210;2024-02-21T12:00:25;9.40;;;4.40;;
2966;SDS011;1493;51.496;7.210;2024-02-21T12:02:52;7.70;;;4.80;;
2966;SDS011;1493;51.496;7.210;2024-02-21T12:05:20;9.23;;;3.53;;
2966;SDS011;1493;51.496;7.210;2024-02-21T12:07:47;8.37;;;3.40;;
2966;SDS011;1493;51.496;7.210;2024-02-21T12:10:14;6.20;;;3.50;;
2966;SDS011;1493;51.496;7.210;2024-02-21T12:12:41;10.07;;;4.40;;
2966;SDS011;1493;51.496;7.210;2024-02-21T12:15:08;5.90;;;3.10;;
2966;SDS011;1493;51.496;7.210;2024-02-21T12:17:36;11.53;;;5.03;;
2966;SDS011;1493;51.496;7.210;2024-02-21T12:20:04;9.93;;;3.40;;
2966;SDS011;1493;51.496;7.210;2024-02-21T12:22:33;6.67;;;3.40;;
2966;SDS011;1493;51.496;7.210;2024-02-21T12:25:02;9.80;;;3.27;;
2966;SDS011;1493;51.496;7.210;2024-02-21T12:27:32;6.60;;;2.80;;
2966;SDS011;1493;51.496;7.210;2024-02-21T12:29:59;7.43;;;2.60;;
2966;SDS011;1493;51.496;7.210;2024-02-21T12:32:26;6.03;;;2.33;;
2966;SDS011;1493;51.496;7.210;2024-02-21T12:34:54;10.03;;;2.77;;
2966;SDS011;1493;51.496;7.210;2024-02-21T12:37:21;6.20;;;2.70;;
2966;SDS011;1493;51.496;7.210;2024-02-21T12:39:49;6.70;;;2.83;;
2966;SDS011;1493;51.496;7.210;2024-02-21T12:42:16;5.23;;;2.70;;
2966;SDS011;1493;51.496;7.210;2024-02-21T12:44:43;9.00;;;2.80;;
2966;SDS011;1493;51.496;7.210;2024-02-21T12:47:10;5.50;;;2.70;;
2966;SDS011;1493;51.496;7.210;2024-02-21T12:49:37;5.70;;;3.33;;
2966;SDS011;1493;51.496;7.210;2024-02-21T12:52:06;6.40;;;3.03;;
2966;SDS011;1493;51.496;7.210;2024-02-21T12:54:32;10.07;;;2.40;;
2966;SDS011;1493;51.496;7.210;2024-02-21T12:56:59;6.93;;;2.07;;
2966;SDS011;1493;51.496;7.210;2024-02-21T12:59:28;10.30;;;3.07;;
2966;SDS011;1493;51.496;7.210;2024-02-21T13:01:54;8.00;;;2.60;;
2966;SDS011;1493;51.496;7.210;2024-02-21T13:04:21;8.00;;;3.40;;
2966;SDS011;1493;51.496;7.210;2024-02-21T13:06:49;7.93;;;2.37;;
2966;SDS011;1493;51.496;7.210;2024-02-21T13:09:17;5.87;;;1.90;;
2966;SDS011;1493;51.496;7.210;2024-02-21T13:11:45;7.10;;;2.80;;
2966;SDS011;1493;51.496;7.210;2024-02-21T13:14:11;6.13;;;2.00;;
2966;SDS011;1493;51.496;7.210;2024-02-21T13:16:38;6.70;;;2.30;;
2966;SDS011;1493;51.496;7.210;2024-02-21T13:19:06;4.70;;;2.30;;
2966;SDS011;1493;51.496;7.210;2024-02-21T13:21:33;7.70;;;2.50;;
2966;SDS011;1493;51.496;7.210;2024-02-21T13:24:00;5.67;;;2.10;;
2966;SDS011;1493;51.496;7.210;2024-02-21T13:26:28;7.10;;;2.33;;
2966;SDS011;1493;51.496;7.210;2024-02-21T13:28:55;5.50;;;1.97;;
2966;SDS011;1493;51.496;7.210;2024-02-21T13:31:22;4.40;;;2.57;;
2966;SDS011;1493;51.496;7.210;2024-02-21T13:33:50;7.30;;;2.27;;
2966;SDS011;1493;51.496;7.210;2024-02-21T13:36:17;5.10;;;2.30;;
2966;SDS011;1493;51.496;7.210;2024-02-21T13:38:44;7.93;;;2.10;;
2966;SDS011;1493;51.496;7.210;2024-02-21T13:41:11;4.60;;;2.23;;
2966;SDS011;1493;51.496;7.210;2024-02-21T13:43:40;8.53;;;2.73;;
2966;SDS011;1493;51.496;7.210;2024-02-21T13:46:07;7.90;;;2.80;;
2966;SDS011;1493;51.496;7.210;2024-02-21T13:48:36;5.03;;;2.30;;
2966;SDS011;1493;51.496;7.210;2024-02-21T13:51:03;4.77;;;2.23;;
2966;SDS011;1493;51.496;7.210;2024-02-21T13:53:30;7.30;;;2.07;;
2966;SDS011;1493;51.496;7.210;2024-02-21T13:55:57;6.90;;;2.50;;
2966;SDS011;1493;51.496;7.210;2024-02-21T13:58:24;5.00;;;2.07;;
2966;SDS011;1493;51.496;7.210;2024-02-21T14:00:52;6.20;;;2.27;;
2966;SDS011;1493;51.496;7.210;2024-02-21T14:03:19;6.17;;;1.90;;
2966;SDS011;1493;51.496;7.210;2024-02-21T14:05:46;8.57;;;2.60;;
2966;SDS011;1493;51.496;7.210;2024-02-21T14:08:13;5.40;;;2.70;;
2966;SDS011;1493;51.496;7.210;2024-02-21T14:10:40;5.77;;;2.63;;
2966;SDS011;1493;51.496;7.210;2024-02-21T14:13:07;7.50;;;2.10;;
2966;SDS011;1493;51.496;7.210;2024-02-21T14:15:34;4.73;;;2.00;;
2966;SDS011;1493;51.496;7.210;2024-02-21T14:18:03;9.50;;;2.00;;
2966;SDS011;1493;51.496;7.210;2024-02-21T14:20:33;4.73;;;1.83;;
2966;SDS011;1493;51.496;7.210;2024-02-21T14:23:00;10.00;;;2.23;;
2966;SDS011;1493;51.496;7.210;2024-02-21T14:25:27;5.20;;;2.03;;
2966;SDS011;1493;51.496;7.210;2024-02-21T14:27:54;5.80;;;2.50;;
2966;SDS011;1493;51.496;7.210;2024-02-21T14:30:21;7.77;;;3.47;;
2966;SDS011;1493;51.496;7.210;2024-02-21T14:32:47;5.17;;;2.23;;
2966;SDS011;1493;51.496;7.210;2024-02-21T14:35:17;4.83;;;2.23;;
2966;SDS011;1493;51.496;7.210;2024-02-21T14:37:45;7.37;;;2.10;;
2966;SDS011;1493;51.496;7.210;2024-02-21T14:40:13;5.87;;;2.43;;
2966;SDS011;1493;51.496;7.210;2024-02-21T14:42:40;8.07;;;2.17;;
2966;SDS011;1493;51.496;7.210;2024-02-21T14:45:08;7.57;;;2.33;;
2966;SDS011;1493;51.496;7.210;2024-02-21T14:47:35;12.03;;;2.50;;
2966;SDS011;1493;51.496;7.210;2024-02-21T14:50:02;6.60;;;1.90;;
2966;SDS011;1493;51.496;7.210;2024-02-21T14:52:31;8.50;;;2.50;;
2966;SDS011;1493;51.496;7.210;2024-02-21T14:54:59;6.23;;;2.10;;
2966;SDS011;1493;51.496;7.210;2024-02-21T14:57:27;5.23;;;3.00;;
2966;SDS011;1493;51.496;7.210;2024-02-21T14:59:54;9.03;;;2.90;;
2966;SDS011;1493;51.496;7.210;2024-02-21T15:02:23;8.03;;;2.17;;
2966;SDS011;1493;51.496;7.210;2024-02-21T15:04:52;8.33;;;3.23;;
2966;SDS011;1493;51.496;7.210;2024-02-21T15:07:19;5.50;;;1.93;;
2966;SDS011;1493;51.496;7.210;2024-02-21T15:09:50;5.83;;;2.47;;